createdAt,value
2023-03-29T00:00:23.000Z,56.88
2023-03-29T00:01:35.849Z,56.88
2023-03-29T00:02:24.143Z,56.40
2023-03-29T00:03:23.062Z,57.04
2023-03-29T00:04:22.993Z,56.72
2023-03-29T00:05:23.096Z,56.88
2023-03-29T00:06:22.914Z,57.04
2023-03-29T00:07:22.943Z,58.01
2023-03-29T00:08:22.921Z,57.20
2023-03-29T00:09:22.929Z,56.88
2023-03-29T00:10:22.947Z,57.52
2023-03-29T00:11:22.899Z,56.88
2023-03-29T00:12:22.872Z,56.72
2023-03-29T00:13:22.960Z,57.04
2023-03-29T00:14:22.903Z,56.72
2023-03-29T00:15:22.887Z,56.72
2023-03-29T00:16:22.935Z,56.72
2023-03-29T00:17:22.885Z,56.88
2023-03-29T00:18:22.887Z,56.40
2023-03-29T00:19:23.846Z,56.72
2023-03-29T00:20:22.831Z,57.04
2023-03-29T00:21:22.828Z,56.88
2023-03-29T00:22:22.828Z,56.40
2023-03-29T00:23:22.819Z,56.88
2023-03-29T00:24:22.817Z,57.04
2023-03-29T00:25:22.829Z,57.36
2023-03-29T00:26:22.949Z,57.52
2023-03-29T00:27:22.820Z,57.36
2023-03-29T00:28:22.873Z,57.20
2023-03-29T00:29:22.828Z,57.36
2023-03-29T00:30:22.796Z,56.88
2023-03-29T00:31:22.852Z,58.01
2023-03-29T00:32:22.891Z,58.65
2023-03-29T00:33:22.790Z,57.69
2023-03-29T00:34:22.810Z,56.40
2023-03-29T00:35:22.760Z,56.88
2023-03-29T00:36:22.752Z,58.01
2023-03-29T00:37:22.772Z,57.52
2023-03-29T00:38:22.823Z,57.36
2023-03-29T00:39:22.727Z,57.04
2023-03-29T00:40:22.729Z,56.72
2023-03-29T00:41:22.748Z,57.20
2023-03-29T00:42:22.715Z,57.36
2023-03-29T00:43:22.733Z,57.36
2023-03-29T00:44:22.717Z,57.52
2023-03-29T00:45:22.724Z,57.20
2023-03-29T00:46:22.827Z,57.52
2023-03-29T00:47:22.828Z,57.36
2023-03-29T00:48:22.676Z,57.69
2023-03-29T00:49:22.661Z,57.85
2023-03-29T00:50:22.744Z,58.49
2023-03-29T00:51:22.628Z,57.69
2023-03-29T00:52:22.666Z,57.85
2023-03-29T00:53:22.714Z,58.01
2023-03-29T00:54:22.657Z,57.36
2023-03-29T00:55:22.643Z,57.52
2023-03-29T00:56:22.659Z,57.69
2023-03-29T00:57:22.786Z,57.52
2023-03-29T00:58:23.689Z,57.04
2023-03-29T00:59:22.623Z,57.69
2023-03-29T01:00:22.687Z,57.36
2023-03-29T01:01:22.717Z,57.36
2023-03-29T01:02:22.656Z,57.36
2023-03-29T01:03:22.811Z,56.88
2023-03-29T01:04:22.582Z,56.88
2023-03-29T01:05:22.578Z,57.36
2023-03-29T01:06:23.582Z,57.69
2023-03-29T01:07:22.621Z,57.04
2023-03-29T01:08:22.579Z,57.69
2023-03-29T01:09:22.566Z,57.20
2023-03-29T01:10:22.576Z,58.01
2023-03-29T01:11:22.547Z,57.20
2023-03-29T01:12:22.549Z,56.88
2023-03-29T01:13:22.557Z,56.56
2023-03-29T01:14:22.516Z,57.20
2023-03-29T01:15:22.538Z,57.36
2023-03-29T01:16:23.521Z,57.36
2023-03-29T01:17:22.478Z,57.20
2023-03-29T01:18:22.510Z,56.72
2023-03-29T01:19:22.534Z,56.56
2023-03-29T01:20:22.513Z,56.88
2023-03-29T01:21:22.467Z,56.72
2023-03-29T01:22:22.506Z,56.88
2023-03-29T01:23:22.462Z,57.20
2023-03-29T01:24:22.438Z,57.36
2023-03-29T01:25:22.486Z,57.20
2023-03-29T01:26:22.440Z,57.52
2023-03-29T01:27:22.434Z,57.36
2023-03-29T01:28:22.475Z,57.04
2023-03-29T01:29:23.473Z,57.52
2023-03-29T01:30:22.423Z,58.49
2023-03-29T01:31:22.476Z,57.20
2023-03-29T01:32:22.447Z,57.20
2023-03-29T01:33:22.386Z,57.04
2023-03-29T01:34:22.392Z,57.52
2023-03-29T01:35:22.382Z,57.04
2023-03-29T01:36:22.440Z,57.20
2023-03-29T01:37:22.413Z,57.36
2023-03-29T01:38:22.396Z,57.69
2023-03-29T01:39:23.358Z,58.65
2023-03-29T01:40:22.360Z,57.36
2023-03-29T01:41:22.405Z,57.52
2023-03-29T01:42:22.829Z,57.69
2023-03-29T01:43:22.343Z,57.20
2023-03-29T01:44:22.341Z,57.36
2023-03-29T01:45:22.350Z,57.69
2023-03-29T01:46:22.339Z,58.01
2023-03-29T01:47:22.342Z,57.69
2023-03-29T01:48:22.279Z,58.01
2023-03-29T01:49:22.310Z,58.01
2023-03-29T01:50:22.287Z,56.88
2023-03-29T01:51:22.325Z,57.20
2023-03-29T01:52:22.272Z,57.36
2023-03-29T01:53:22.289Z,58.01
2023-03-29T01:54:22.303Z,58.01
2023-03-29T01:55:22.311Z,58.01
2023-03-29T01:56:22.235Z,57.85
2023-03-29T01:57:22.397Z,59.30
2023-03-29T01:58:22.265Z,57.52
2023-03-29T01:59:22.238Z,57.36
2023-03-29T02:00:22.254Z,57.20
2023-03-29T02:01:22.246Z,58.01
2023-03-29T02:02:22.317Z,58.49
2023-03-29T02:03:22.301Z,58.17
2023-03-29T02:04:22.285Z,58.49
2023-03-29T02:05:22.185Z,58.01
2023-03-29T02:06:22.194Z,57.85
2023-03-29T02:07:22.216Z,57.85
2023-03-29T02:08:22.181Z,58.49
2023-03-29T02:09:22.211Z,57.69
2023-03-29T02:10:22.148Z,58.33
2023-03-29T02:11:22.153Z,58.17
2023-03-29T02:12:22.179Z,58.49
2023-03-29T02:13:22.136Z,58.33
2023-03-29T02:14:22.197Z,58.17
2023-03-29T02:15:22.138Z,58.01
2023-03-29T02:16:22.313Z,58.33
2023-03-29T02:17:22.116Z,58.33
2023-03-29T02:18:22.096Z,58.97
2023-03-29T02:19:22.171Z,58.81
2023-03-29T02:20:22.097Z,58.81
2023-03-29T02:21:22.126Z,58.49
2023-03-29T02:22:22.121Z,58.65
2023-03-29T02:23:22.091Z,58.49
2023-03-29T02:24:22.133Z,58.49
2023-03-29T02:25:22.081Z,58.49
2023-03-29T02:26:22.072Z,58.65
2023-03-29T02:27:22.082Z,58.17
2023-03-29T02:28:22.035Z,58.65
2023-03-29T02:29:22.046Z,58.33
2023-03-29T02:30:22.033Z,58.33
2023-03-29T02:31:22.151Z,58.81
2023-03-29T02:32:22.049Z,58.17
2023-03-29T02:33:22.012Z,58.49
2023-03-29T02:34:22.002Z,58.81
2023-03-29T02:35:22.018Z,58.97
2023-03-29T02:36:22.089Z,58.81
2023-03-29T02:37:22.003Z,59.30
2023-03-29T02:38:22.017Z,59.62
2023-03-29T02:39:21.978Z,59.78
2023-03-29T02:40:21.983Z,58.49
2023-03-29T02:41:22.021Z,58.49
2023-03-29T02:42:21.994Z,58.49
2023-03-29T02:43:24.524Z,58.33
2023-03-29T02:44:21.956Z,58.01
2023-03-29T02:45:21.979Z,58.01
2023-03-29T02:46:22.021Z,58.33
2023-03-29T02:47:22.838Z,58.49
2023-03-29T02:48:21.940Z,58.49
2023-03-29T02:49:21.909Z,59.14
2023-03-29T02:50:21.938Z,59.46
2023-03-29T02:51:21.907Z,58.01
2023-03-29T02:52:21.914Z,59.62
2023-03-29T02:53:21.905Z,59.78
2023-03-29T02:54:21.885Z,58.01
2023-03-29T02:55:21.916Z,58.33
2023-03-29T02:56:21.914Z,58.01
2023-03-29T02:57:22.892Z,58.33
2023-03-29T02:58:21.865Z,58.33
2023-03-29T02:59:21.853Z,58.49
2023-03-29T03:00:21.835Z,59.14
2023-03-29T03:01:21.859Z,59.30
2023-03-29T03:02:21.932Z,58.49
2023-03-29T03:03:21.931Z,58.49
2023-03-29T03:04:21.805Z,58.33
2023-03-29T03:05:21.817Z,58.81
2023-03-29T03:06:21.810Z,58.17
2023-03-29T03:07:21.830Z,59.94
2023-03-29T03:08:21.804Z,58.81
2023-03-29T03:09:21.812Z,58.81
2023-03-29T03:10:21.801Z,59.62
2023-03-29T03:11:21.778Z,58.49
2023-03-29T03:12:21.750Z,60.26
2023-03-29T03:13:21.812Z,59.94
2023-03-29T03:14:21.768Z,64.13
2023-03-29T03:15:21.842Z,62.84
2023-03-29T03:16:21.822Z,60.10
2023-03-29T03:17:21.838Z,58.97
2023-03-29T03:18:21.725Z,59.78
2023-03-29T03:19:21.733Z,59.46
2023-03-29T03:20:21.711Z,59.46
2023-03-29T03:21:21.723Z,60.26
2023-03-29T03:22:21.728Z,59.30
2023-03-29T03:23:21.730Z,62.20
2023-03-29T03:24:21.695Z,58.97
2023-03-29T03:25:21.684Z,61.39
2023-03-29T03:26:21.701Z,59.30
2023-03-29T03:27:21.685Z,59.14
2023-03-29T03:28:21.695Z,58.33
2023-03-29T03:29:21.715Z,58.97
2023-03-29T03:30:21.680Z,60.59
2023-03-29T03:31:21.700Z,58.97
2023-03-29T03:32:21.701Z,59.14
2023-03-29T03:33:21.650Z,59.94
2023-03-29T03:34:21.649Z,62.52
2023-03-29T03:35:21.629Z,59.78
2023-03-29T03:36:21.612Z,60.75
2023-03-29T03:37:21.630Z,66.39
2023-03-29T03:38:21.644Z,63.81
2023-03-29T03:39:21.580Z,63.65
2023-03-29T03:40:21.813Z,63.81
2023-03-29T03:41:21.584Z,60.59
2023-03-29T03:42:21.567Z,60.59
2023-03-29T03:43:21.590Z,60.26
2023-03-29T03:44:21.572Z,63.16
2023-03-29T03:45:21.629Z,60.26
2023-03-29T03:46:21.637Z,59.94
2023-03-29T03:47:21.539Z,61.87
2023-03-29T03:48:22.530Z,69.13
2023-03-29T03:49:21.562Z,64.61
2023-03-29T03:50:21.521Z,59.14
2023-03-29T03:51:21.584Z,60.42
2023-03-29T03:52:21.498Z,62.52
2023-03-29T03:53:21.592Z,61.87
2023-03-29T03:54:21.504Z,61.55
2023-03-29T03:55:21.503Z,60.10
2023-03-29T03:56:21.508Z,61.39
2023-03-29T03:57:21.509Z,63.65
2023-03-29T03:58:21.510Z,59.62
2023-03-29T03:59:21.438Z,62.20
2023-03-29T04:00:21.532Z,60.59
2023-03-29T04:01:21.495Z,59.14
2023-03-29T04:02:21.466Z,60.91
2023-03-29T04:03:22.752Z,61.39
2023-03-29T04:04:21.520Z,60.10
2023-03-29T04:05:21.434Z,61.07
2023-03-29T04:06:21.480Z,63.81
2023-03-29T04:07:21.421Z,61.07
2023-03-29T04:08:21.458Z,61.07
2023-03-29T04:09:21.381Z,59.62
2023-03-29T04:10:21.384Z,59.62
2023-03-29T04:11:21.385Z,60.75
2023-03-29T04:12:21.494Z,61.07
2023-03-29T04:13:21.365Z,61.07
2023-03-29T04:14:21.388Z,69.13
2023-03-29T04:15:21.346Z,66.06
2023-03-29T04:16:21.506Z,60.75
2023-03-29T04:17:21.376Z,64.13
2023-03-29T04:18:21.445Z,65.74
2023-03-29T04:19:21.813Z,60.91
2023-03-29T04:20:21.333Z,62.84
2023-03-29T04:21:21.498Z,63.16
2023-03-29T04:22:22.314Z,64.94
2023-03-29T04:23:21.345Z,59.94
2023-03-29T04:24:21.304Z,61.71
2023-03-29T04:25:21.394Z,66.23
2023-03-29T04:26:21.303Z,63.97
2023-03-29T04:27:21.288Z,62.84
2023-03-29T04:28:21.332Z,60.26
2023-03-29T04:29:21.299Z,64.45
2023-03-29T04:30:21.277Z,65.58
2023-03-29T04:31:21.279Z,60.42
2023-03-29T04:32:21.331Z,64.94
2023-03-29T04:33:21.267Z,61.55
2023-03-29T04:34:21.278Z,61.87
2023-03-29T04:35:21.234Z,65.10
2023-03-29T04:36:21.245Z,65.10
2023-03-29T04:37:21.221Z,59.78
2023-03-29T04:38:21.235Z,66.23
2023-03-29T04:39:21.208Z,63.33
2023-03-29T04:40:21.244Z,70.74
2023-03-29T04:41:21.221Z,68.48
2023-03-29T04:42:21.304Z,66.23
2023-03-29T04:43:21.190Z,71.06
2023-03-29T04:44:21.262Z,68.80
2023-03-29T04:45:21.218Z,66.55
2023-03-29T04:46:21.228Z,63.97
2023-03-29T04:47:21.172Z,69.13
2023-03-29T04:48:21.167Z,68.96
2023-03-29T04:49:21.205Z,66.23
2023-03-29T04:50:21.264Z,66.06
2023-03-29T04:51:21.148Z,67.03
2023-03-29T04:52:23.183Z,64.29
2023-03-29T04:53:21.146Z,67.84
2023-03-29T04:54:21.145Z,65.58
2023-03-29T04:55:21.177Z,66.23
2023-03-29T04:56:21.108Z,60.59
2023-03-29T04:57:21.150Z,64.61
2023-03-29T04:58:23.646Z,64.13
2023-03-29T04:59:22.093Z,68.96
2023-03-29T05:00:21.128Z,67.51
2023-03-29T05:01:21.110Z,61.23
2023-03-29T05:02:21.081Z,62.04
2023-03-29T05:03:21.931Z,69.13
2023-03-29T05:04:22.043Z,64.13
2023-03-29T05:05:21.056Z,61.71
2023-03-29T05:06:21.043Z,66.06
2023-03-29T05:07:21.013Z,64.94
2023-03-29T05:08:21.030Z,61.87
2023-03-29T05:09:21.014Z,62.68
2023-03-29T05:10:21.009Z,62.68
2023-03-29T05:11:21.023Z,68.00
2023-03-29T05:12:21.004Z,60.91
2023-03-29T05:13:20.968Z,69.77
2023-03-29T05:14:20.988Z,65.10
2023-03-29T05:15:20.972Z,63.65
2023-03-29T05:16:21.075Z,64.61
2023-03-29T05:17:21.004Z,68.80
2023-03-29T05:18:20.983Z,63.65
2023-03-29T05:19:20.964Z,61.55
2023-03-29T05:20:21.009Z,63.33
2023-03-29T05:21:20.986Z,68.32
2023-03-29T05:22:20.966Z,65.58
2023-03-29T05:23:20.957Z,68.80
2023-03-29T05:24:20.930Z,70.90
2023-03-29T05:25:20.886Z,61.87
2023-03-29T05:26:21.014Z,69.45
2023-03-29T05:27:20.941Z,62.84
2023-03-29T05:28:20.882Z,73.48
2023-03-29T05:29:20.954Z,63.81
2023-03-29T05:30:20.899Z,71.38
2023-03-29T05:31:20.936Z,62.36
2023-03-29T05:32:20.946Z,71.54
2023-03-29T05:33:20.884Z,68.00
2023-03-29T05:34:20.864Z,67.35
2023-03-29T05:35:20.876Z,61.87
2023-03-29T05:36:20.844Z,69.45
2023-03-29T05:37:20.866Z,67.03
2023-03-29T05:38:20.840Z,66.71
2023-03-29T05:39:20.867Z,65.90
2023-03-29T05:40:20.883Z,64.45
2023-03-29T05:41:20.854Z,68.16
2023-03-29T05:42:20.804Z,67.68
2023-03-29T05:43:20.801Z,63.81
2023-03-29T05:44:20.805Z,64.78
2023-03-29T05:45:20.830Z,65.42
2023-03-29T05:46:20.778Z,71.70
2023-03-29T05:47:20.784Z,69.29
2023-03-29T05:48:20.772Z,71.87
2023-03-29T05:49:20.750Z,71.06
2023-03-29T05:50:20.782Z,70.74
2023-03-29T05:51:20.790Z,64.13
2023-03-29T05:52:20.742Z,63.00
2023-03-29T05:53:20.712Z,67.68
2023-03-29T05:54:20.761Z,64.61
2023-03-29T05:55:20.789Z,72.35
2023-03-29T05:56:20.744Z,62.36
2023-03-29T05:57:20.825Z,63.97
2023-03-29T05:58:20.737Z,67.19
2023-03-29T05:59:20.745Z,67.35
2023-03-29T06:00:20.677Z,69.61
2023-03-29T06:01:20.704Z,70.74
2023-03-29T06:02:20.790Z,62.04
2023-03-29T06:03:21.860Z,67.68
2023-03-29T06:04:21.772Z,71.06
2023-03-29T06:05:20.632Z,67.35
2023-03-29T06:06:20.691Z,68.16
2023-03-29T06:07:20.663Z,68.32
2023-03-29T06:08:20.633Z,67.68
2023-03-29T06:09:20.636Z,66.06
2023-03-29T06:10:20.610Z,65.74
2023-03-29T06:11:20.677Z,66.71
2023-03-29T06:12:20.630Z,68.80
2023-03-29T06:13:20.581Z,63.00
2023-03-29T06:14:20.580Z,71.38
2023-03-29T06:15:20.650Z,70.25
2023-03-29T06:16:20.694Z,68.96
2023-03-29T06:17:20.812Z,63.97
2023-03-29T06:18:20.615Z,70.74
2023-03-29T06:19:20.564Z,71.38
2023-03-29T06:20:20.629Z,63.00
2023-03-29T06:21:20.868Z,68.64
2023-03-29T06:22:20.561Z,66.06
2023-03-29T06:23:20.532Z,70.58
2023-03-29T06:24:21.541Z,69.45
2023-03-29T06:25:20.586Z,67.68
2023-03-29T06:26:20.563Z,69.45
2023-03-29T06:27:20.528Z,64.94
2023-03-29T06:28:20.527Z,64.13
2023-03-29T06:29:20.492Z,68.16
2023-03-29T06:30:20.524Z,66.71
2023-03-29T06:31:20.677Z,69.93
2023-03-29T06:32:20.495Z,66.06
2023-03-29T06:33:20.537Z,68.32
2023-03-29T06:34:20.482Z,71.06
2023-03-29T06:35:20.522Z,61.39
2023-03-29T06:36:20.609Z,70.74
2023-03-29T06:37:20.517Z,68.64
2023-03-29T06:38:20.495Z,70.25
2023-03-29T06:39:20.525Z,71.06
2023-03-29T06:40:20.461Z,66.23
2023-03-29T06:41:20.463Z,72.67
2023-03-29T06:42:21.765Z,67.51
2023-03-29T06:43:21.457Z,70.09
2023-03-29T06:44:20.486Z,65.42
2023-03-29T06:45:23.220Z,67.84
2023-03-29T06:46:21.439Z,69.13
2023-03-29T06:47:20.456Z,64.61
2023-03-29T06:48:20.430Z,72.03
2023-03-29T06:49:20.379Z,64.29
2023-03-29T06:50:20.398Z,62.36
2023-03-29T06:51:22.657Z,67.84
2023-03-29T06:52:21.426Z,68.48
2023-03-29T06:53:20.441Z,66.39
2023-03-29T06:54:20.431Z,67.19
2023-03-29T06:55:20.434Z,65.42
2023-03-29T06:56:20.401Z,71.54
2023-03-29T06:57:20.346Z,66.55
2023-03-29T06:58:20.376Z,64.78
2023-03-29T06:59:20.353Z,67.84
2023-03-29T07:00:20.320Z,67.51
2023-03-29T07:01:20.356Z,64.94
2023-03-29T07:02:20.315Z,66.55
2023-03-29T07:03:20.384Z,65.58
2023-03-29T07:04:20.439Z,74.77
2023-03-29T07:05:20.291Z,70.74
2023-03-29T07:06:20.374Z,64.13
2023-03-29T07:07:20.692Z,62.20
2023-03-29T07:08:20.303Z,60.42
2023-03-29T07:09:20.334Z,59.94
2023-03-29T07:10:20.262Z,58.33
2023-03-29T07:11:20.260Z,65.10
2023-03-29T07:12:20.268Z,62.04
2023-03-29T07:13:20.265Z,65.90
2023-03-29T07:14:20.276Z,59.78
2023-03-29T07:15:20.243Z,61.07
2023-03-29T07:16:20.317Z,71.54
2023-03-29T07:17:20.232Z,60.59
2023-03-29T07:18:20.392Z,64.78
2023-03-29T07:19:20.257Z,67.84
2023-03-29T07:20:20.216Z,70.25
2023-03-29T07:21:20.240Z,64.29
2023-03-29T07:22:20.216Z,66.39
2023-03-29T07:23:20.199Z,64.78
2023-03-29T07:24:20.242Z,71.06
2023-03-29T07:25:20.192Z,64.29
2023-03-29T07:26:29.014Z,67.35
2023-03-29T07:27:21.194Z,71.54
2023-03-29T07:28:20.178Z,57.85
2023-03-29T07:29:20.345Z,67.68
2023-03-29T07:30:20.162Z,65.26
2023-03-29T07:31:20.162Z,63.65
2023-03-29T07:32:20.224Z,60.10
2023-03-29T07:33:20.294Z,58.33
2023-03-29T07:34:20.166Z,59.30
2023-03-29T07:35:20.112Z,69.77
2023-03-29T07:36:20.166Z,66.39
2023-03-29T07:37:20.102Z,64.29
2023-03-29T07:38:20.114Z,67.84
2023-03-29T07:39:20.117Z,63.65
2023-03-29T07:40:20.121Z,68.64
2023-03-29T07:41:20.086Z,67.35
2023-03-29T07:42:20.144Z,68.80
2023-03-29T07:43:20.110Z,60.75
2023-03-29T07:44:20.268Z,63.00
2023-03-29T07:45:20.140Z,62.68
2023-03-29T07:46:21.081Z,66.87
2023-03-29T07:47:20.039Z,66.87
2023-03-29T07:48:20.071Z,59.78
2023-03-29T07:49:21.675Z,62.04
2023-03-29T07:50:21.166Z,67.19
2023-03-29T07:51:20.003Z,64.13
2023-03-29T07:52:20.034Z,70.09
2023-03-29T07:53:20.019Z,63.16
2023-03-29T07:54:20.008Z,66.06
2023-03-29T07:55:20.035Z,65.42
2023-03-29T07:56:20.034Z,60.75
2023-03-29T07:57:20.022Z,62.36
2023-03-29T07:58:19.977Z,59.78
2023-03-29T07:59:19.948Z,58.65
2023-03-29T08:00:20.069Z,56.40
2023-03-29T08:01:20.188Z,56.72
2023-03-29T08:02:19.956Z,63.49
2023-03-29T08:03:20.049Z,57.20
2023-03-29T08:04:20.030Z,68.96
2023-03-29T08:05:29.239Z,66.55
2023-03-29T08:06:21.972Z,63.97
2023-03-29T08:07:19.986Z,62.20
2023-03-29T08:08:19.945Z,62.20
2023-03-29T08:09:19.917Z,61.55
2023-03-29T08:10:19.977Z,66.71
2023-03-29T08:11:20.036Z,65.10
2023-03-29T08:12:19.901Z,64.61
2023-03-29T08:13:19.894Z,61.23
2023-03-29T08:14:19.890Z,67.84
2023-03-29T08:15:19.925Z,69.77
2023-03-29T08:16:19.939Z,67.19
2023-03-29T08:17:19.894Z,65.10
2023-03-29T08:18:19.860Z,67.19
2023-03-29T08:19:19.944Z,62.20
2023-03-29T08:20:19.841Z,68.80
2023-03-29T08:21:19.841Z,58.97
2023-03-29T08:22:19.885Z,65.42
2023-03-29T08:23:19.867Z,66.87
2023-03-29T08:24:21.005Z,71.54
2023-03-29T08:25:20.845Z,58.49
2023-03-29T08:26:19.849Z,66.71
2023-03-29T08:27:19.813Z,60.59
2023-03-29T08:28:19.850Z,66.71
2023-03-29T08:29:19.819Z,62.68
2023-03-29T08:30:19.759Z,64.29
2023-03-29T08:31:19.798Z,69.13
2023-03-29T08:32:19.800Z,69.45
2023-03-29T08:33:19.956Z,63.65
2023-03-29T08:34:19.766Z,69.61
2023-03-29T08:35:19.787Z,60.59
2023-03-29T08:36:19.828Z,60.59
2023-03-29T08:37:19.832Z,65.10
2023-03-29T08:38:19.763Z,66.87
2023-03-29T08:39:19.769Z,58.65
2023-03-29T08:40:19.784Z,68.96
2023-03-29T08:41:19.724Z,66.39
2023-03-29T08:42:19.677Z,68.80
2023-03-29T08:43:19.724Z,69.61
2023-03-29T08:44:19.686Z,65.10
2023-03-29T08:45:19.670Z,57.52
2023-03-29T08:46:19.713Z,67.51
2023-03-29T08:47:19.640Z,61.87
2023-03-29T08:48:19.684Z,64.13
2023-03-29T08:49:19.737Z,58.17
2023-03-29T08:50:19.998Z,61.55
2023-03-29T08:51:19.629Z,59.94
2023-03-29T08:52:19.667Z,64.45
2023-03-29T08:53:19.646Z,59.94
2023-03-29T08:54:19.610Z,56.88
2023-03-29T08:55:19.629Z,57.85
2023-03-29T08:56:19.583Z,58.33
2023-03-29T08:57:19.711Z,65.26
2023-03-29T08:58:19.632Z,71.87
2023-03-29T08:59:19.596Z,62.84
2023-03-29T09:00:19.630Z,67.19
2023-03-29T09:01:19.595Z,64.13
2023-03-29T09:02:19.575Z,59.14
2023-03-29T09:03:19.639Z,65.74
2023-03-29T09:04:19.667Z,60.26
2023-03-29T09:05:19.658Z,64.61
2023-03-29T09:06:19.559Z,61.71
2023-03-29T09:07:19.573Z,58.81
2023-03-29T09:08:19.502Z,61.71
2023-03-29T09:09:19.491Z,58.49
2023-03-29T09:10:19.521Z,60.10
2023-03-29T09:11:19.499Z,68.16
2023-03-29T09:12:19.512Z,68.64
2023-03-29T09:13:19.538Z,59.62
2023-03-29T09:14:19.525Z,65.58
2023-03-29T09:15:19.525Z,67.84
2023-03-29T09:16:19.503Z,68.96
2023-03-29T09:17:19.490Z,67.03
2023-03-29T09:18:19.502Z,63.81
2023-03-29T09:19:19.468Z,63.97
2023-03-29T09:20:20.439Z,64.45
2023-03-29T09:21:19.425Z,60.59
2023-03-29T09:22:19.446Z,69.45
2023-03-29T09:23:19.493Z,63.97
2023-03-29T09:24:19.383Z,61.71
2023-03-29T09:25:19.381Z,62.68
2023-03-29T09:26:19.497Z,69.45
2023-03-29T09:27:19.376Z,58.33
2023-03-29T09:28:19.378Z,66.06
2023-03-29T09:29:19.362Z,73.64
2023-03-29T09:30:19.387Z,66.55
2023-03-29T09:31:19.406Z,62.04
2023-03-29T09:32:19.383Z,59.78
2023-03-29T09:33:19.344Z,65.42
2023-03-29T09:34:19.405Z,58.81
2023-03-29T09:35:52.827Z,65.58
2023-03-29T09:36:51.821Z,63.97
2023-03-29T09:37:53.831Z,70.25
2023-03-29T09:38:19.333Z,66.39
2023-03-29T09:39:52.910Z,68.00
2023-03-29T09:40:19.294Z,72.35
2023-03-29T09:41:52.743Z,66.39
2023-03-29T09:42:52.729Z,65.74
2023-03-29T09:43:55.408Z,67.84
2023-03-29T09:44:30.260Z,67.84
2023-03-29T09:45:21.268Z,60.10
2023-03-29T09:46:19.432Z,66.23
2023-03-29T09:47:19.255Z,64.78
2023-03-29T09:48:19.285Z,56.88
2023-03-29T09:49:19.241Z,57.52
2023-03-29T09:50:30.305Z,61.55
2023-03-29T09:51:21.210Z,61.87
2023-03-29T09:52:19.218Z,64.61
2023-03-29T09:53:19.226Z,61.55
2023-03-29T09:54:19.222Z,68.16
2023-03-29T09:55:19.216Z,65.42
2023-03-29T09:56:19.184Z,66.71
2023-03-29T09:57:19.252Z,56.40
2023-03-29T09:58:19.200Z,55.43
2023-03-29T09:59:19.280Z,57.69
2023-03-29T10:00:19.180Z,63.97
2023-03-29T10:01:19.374Z,64.29
2023-03-29T10:02:19.175Z,62.36
2023-03-29T10:03:19.159Z,70.58
2023-03-29T10:04:19.206Z,64.94
2023-03-29T10:05:19.833Z,64.29
2023-03-29T10:06:19.149Z,69.61
2023-03-29T10:07:19.177Z,65.26
2023-03-29T10:08:19.885Z,60.10
2023-03-29T10:09:20.115Z,69.45
2023-03-29T10:10:20.157Z,67.03
2023-03-29T10:11:19.197Z,67.03
2023-03-29T10:12:19.097Z,65.26
2023-03-29T10:13:19.078Z,69.45
2023-03-29T10:14:19.068Z,70.09
2023-03-29T10:15:29.146Z,56.72
2023-03-29T10:16:21.168Z,57.69
2023-03-29T10:17:19.094Z,64.94
2023-03-29T10:18:19.084Z,66.39
2023-03-29T10:19:19.090Z,68.96
2023-03-29T10:20:19.032Z,65.10
2023-03-29T10:21:19.054Z,61.39
2023-03-29T10:22:19.057Z,63.97
2023-03-29T10:23:19.061Z,61.39
2023-03-29T10:24:19.012Z,65.58
2023-03-29T10:25:19.018Z,63.00
2023-03-29T10:26:19.015Z,67.19
2023-03-29T10:27:19.019Z,59.30
2023-03-29T10:28:18.965Z,66.23
2023-03-29T10:29:18.985Z,61.23
2023-03-29T10:30:18.985Z,57.85
2023-03-29T10:31:18.991Z,61.23
2023-03-29T10:32:18.968Z,63.33
2023-03-29T10:33:18.956Z,70.58
2023-03-29T10:34:18.999Z,68.80
2023-03-29T10:35:18.935Z,64.94
2023-03-29T10:36:18.966Z,61.55
2023-03-29T10:37:18.959Z,59.14
2023-03-29T10:38:18.931Z,63.49
2023-03-29T10:39:18.968Z,56.88
2023-03-29T10:40:18.953Z,63.49
2023-03-29T10:41:18.912Z,57.85
2023-03-29T10:42:18.944Z,65.90
2023-03-29T10:43:18.937Z,61.39
2023-03-29T10:44:18.911Z,59.30
2023-03-29T10:45:18.911Z,65.90
2023-03-29T10:46:18.924Z,65.10
2023-03-29T10:47:18.914Z,69.45
2023-03-29T10:48:18.896Z,66.71
2023-03-29T10:49:18.870Z,62.68
2023-03-29T10:50:18.902Z,66.23
2023-03-29T10:51:18.868Z,69.45
2023-03-29T10:52:18.862Z,69.29
2023-03-29T10:53:18.833Z,63.81
2023-03-29T10:54:18.852Z,63.00
2023-03-29T10:55:18.835Z,63.49
2023-03-29T10:56:18.841Z,65.10
2023-03-29T10:57:20.971Z,60.59
2023-03-29T10:58:18.842Z,62.84
2023-03-29T10:59:18.856Z,59.46
2023-03-29T11:00:18.948Z,59.46
2023-03-29T11:01:18.904Z,67.35
2023-03-29T11:02:18.835Z,66.06
2023-03-29T11:03:21.014Z,60.10
2023-03-29T11:04:19.741Z,68.00
2023-03-29T11:05:18.779Z,69.77
2023-03-29T11:06:18.759Z,66.55
2023-03-29T11:07:18.745Z,64.45
2023-03-29T11:08:18.731Z,61.71
2023-03-29T11:09:19.749Z,62.04
2023-03-29T11:10:18.749Z,65.26
2023-03-29T11:11:18.742Z,64.61
2023-03-29T11:12:18.729Z,63.16
2023-03-29T11:13:18.736Z,67.03
2023-03-29T11:14:18.729Z,62.36
2023-03-29T11:15:18.689Z,66.39
2023-03-29T11:16:18.797Z,60.42
2023-03-29T11:17:18.685Z,64.61
2023-03-29T11:18:18.702Z,67.35
2023-03-29T11:19:18.679Z,68.96
2023-03-29T11:20:18.667Z,68.16
2023-03-29T11:21:18.713Z,66.87
2023-03-29T11:22:18.652Z,68.32
2023-03-29T11:23:19.435Z,68.80
2023-03-29T11:24:18.666Z,68.96
2023-03-29T11:25:18.681Z,70.58
2023-03-29T11:26:18.629Z,67.03
2023-03-29T11:27:18.606Z,66.39
2023-03-29T11:28:18.642Z,72.03
2023-03-29T11:29:18.796Z,70.42
2023-03-29T11:30:18.641Z,63.97
2023-03-29T11:31:18.685Z,69.45
2023-03-29T11:32:18.582Z,69.29
2023-03-29T11:33:18.565Z,71.54
2023-03-29T11:34:18.563Z,60.59
2023-03-29T11:35:18.615Z,65.10
2023-03-29T11:36:19.439Z,70.25
2023-03-29T11:37:18.535Z,73.64
2023-03-29T11:38:18.619Z,68.32
2023-03-29T11:39:18.582Z,61.07
2023-03-29T11:40:18.525Z,71.22
2023-03-29T11:41:18.550Z,69.61
2023-03-29T11:42:18.526Z,63.65
2023-03-29T11:43:18.514Z,69.93
2023-03-29T11:44:18.527Z,65.90
2023-03-29T11:45:18.601Z,66.71
2023-03-29T11:46:19.957Z,64.13
2023-03-29T11:47:18.585Z,67.68
2023-03-29T11:48:18.480Z,66.55
2023-03-29T11:49:18.566Z,63.33
2023-03-29T11:50:18.480Z,61.55
2023-03-29T11:51:18.517Z,69.45
2023-03-29T11:52:18.480Z,72.03
2023-03-29T11:53:18.444Z,70.42
2023-03-29T11:54:18.448Z,66.06
2023-03-29T11:55:18.494Z,69.13
2023-03-29T11:56:18.434Z,69.13
2023-03-29T11:57:18.451Z,68.96
2023-03-29T11:58:18.412Z,69.45
2023-03-29T11:59:18.451Z,62.20
2023-03-29T12:00:18.430Z,70.09
2023-03-29T12:01:18.419Z,69.93
2023-03-29T12:02:18.421Z,65.90
2023-03-29T12:03:18.437Z,68.16
2023-03-29T12:04:18.386Z,70.09
2023-03-29T12:05:18.398Z,68.96
2023-03-29T12:06:18.364Z,68.96
2023-03-29T12:07:18.448Z,64.78
2023-03-29T12:08:18.415Z,69.93
2023-03-29T12:09:18.366Z,61.55
2023-03-29T12:10:18.330Z,68.96
2023-03-29T12:11:18.454Z,71.06
2023-03-29T12:12:19.264Z,71.38
2023-03-29T12:13:18.715Z,58.97
2023-03-29T12:14:18.304Z,69.13
2023-03-29T12:15:18.304Z,70.25
2023-03-29T12:16:18.310Z,73.32
2023-03-29T12:17:18.324Z,66.23
2023-03-29T12:18:18.907Z,66.23
2023-03-29T12:19:18.291Z,65.90
2023-03-29T12:20:18.293Z,70.09
2023-03-29T12:21:18.269Z,68.80
2023-03-29T12:22:18.232Z,70.09
2023-03-29T12:23:18.246Z,68.48
2023-03-29T12:24:18.286Z,70.42
2023-03-29T12:25:19.291Z,68.48
2023-03-29T12:26:19.212Z,70.74
2023-03-29T12:27:18.281Z,69.13
2023-03-29T12:28:18.221Z,60.10
2023-03-29T12:29:18.210Z,66.87
2023-03-29T12:30:18.187Z,69.29
2023-03-29T12:31:18.209Z,72.51
2023-03-29T12:32:18.220Z,64.61
2023-03-29T12:33:18.283Z,58.33
2023-03-29T12:34:18.174Z,69.29
2023-03-29T12:35:18.251Z,69.61
2023-03-29T12:36:18.234Z,69.77
2023-03-29T12:37:18.212Z,68.80
2023-03-29T12:38:18.160Z,63.49
2023-03-29T12:39:18.147Z,69.13
2023-03-29T12:40:18.208Z,68.48
2023-03-29T12:41:18.122Z,67.84
2023-03-29T12:42:18.182Z,68.32
2023-03-29T12:43:18.143Z,68.48
2023-03-29T12:44:18.106Z,67.03
2023-03-29T12:45:18.131Z,72.03
2023-03-29T12:46:18.213Z,69.77
2023-03-29T12:47:18.091Z,68.48
2023-03-29T12:48:18.112Z,68.48
2023-03-29T12:49:20.479Z,65.42
2023-03-29T12:50:19.117Z,68.80
2023-03-29T12:51:18.070Z,66.06
2023-03-29T12:52:18.055Z,68.32